Darstellungsparameter: Aktuell verwendete Einstellungen:
Skalierung der Graphiken ... ?
xyx+y,   Skalierungsfaktor:      Skalierung: Modus: x, Faktor: 1
Darstellungszeitraum ... ?
Vom - - bis: - -   Zeitraum: 25.04.2014 - 24.04.2015
Min/Max/Avg-Anzeige ... ?
Zeige MMA aktuell
Zeige MMA Monat
Zeige MMA alles
Zeige --A aktuell
Zeige --A Monat
Zeige --A alles
Keine MMA-Anzeige
MMA:
Keine MMA-Graphiken
MMA-Basis: 25.04.2014 - 24.04.2015
Quicknavigation für Darstellung... ?
Tage:      1T, 2T, 3T, 5T -1T -2T -3T -5T +1T +2T +3T +5T
Wochen: 1W, 2W, 3W -1W -2W -3W +1W +2W +3W
Monate: 1M, 3M, 6M -1M -3M -6M +1M +3M +6M
Jahre:    1J, 3J, 5J, 10J -1J -3J -5J -10J +1J +3J +5J +10J
Nutze für die Darstellung ... ?
Originaldaten oder ...
Mittelwerte Minima Maxima auf...
Stundenbasis Tagesbasis Wochenbasis
Monatsbasis Jahresbasis      Datenbasis: Mittelwerte auf Tagesbasis
Darstellen als:
Statistik (Auto) Statistik J:M      Darstellung:
Zur Graphik,    zurück zur Übersicht aller Sensoren.
 
Tabellarische Datenbersicht: ?
 
Sensor: Nr:Datum:Temp:Feuchte:Taupunkt:
Aussen-T/F 1 25-04-2014 00:00:00 16.71562 C 74.1319 % 12.09 C
2 26-04-2014 00:00:00 15.2 C 74.7604 % 10.75 C
3 27-04-2014 00:00:00 13.07674 C 81.7986 % 10.04 C
4 28-04-2014 00:00:00 12.80243 C 79.8715 % 9.42 C
5 29-04-2014 00:00:00 13.43403 C 90.3056 % 11.88 C
6 30-04-2014 00:00:00 14.53507 C 84.7500 % 12 C
7 01-05-2014 00:00:00 14.73611 C 81.3611 % 11.58 C
8 02-05-2014 00:00:00 11.71319 C 86.6736 % 9.57 C
9 03-05-2014 00:00:00 10.92708 C 61.0069 % 3.71 C
10 04-05-2014 00:00:00 9.61042 C 68.0590 % 4.02 C
11 05-05-2014 00:00:00 12.60069 C 67.5521 % 6.76 C
12 06-05-2014 00:00:00 13.72083 C 74.2778 % 9.23 C
13 07-05-2014 00:00:00 13.05764 C 84.9931 % 10.6 C
14 08-05-2014 00:00:00 12.32847 C 84.6146 % 9.81 C
15 09-05-2014 00:00:00 15.33403 C 71.0833 % 10.13 C
16 10-05-2014 00:00:00 12.40903 C 81.6528 % 9.36 C
17 11-05-2014 00:00:00 11.45764 C 80.1667 % 8.16 C
18 12-05-2014 00:00:00 11.1941 C 74.9167 % 6.92 C
19 13-05-2014 00:00:00 10.30729 C 85.3368 % 7.96 C
20 14-05-2014 00:00:00 10.63542 C 76.9514 % 6.77 C
21 15-05-2014 00:00:00 10.00382 C 80.4757 % 6.8 C
22 16-05-2014 00:00:00 13.25347 C 73.1250 % 8.55 C
23 17-05-2014 00:00:00 14.22292 C 71.7500 % 9.2 C
24 18-05-2014 00:00:00 15.4809 C 74.3021 % 10.93 C
25 19-05-2014 00:00:00 17.57188 C 70.6944 % 12.19 C
Sensor: Nr:Datum:Temp:Feuchte:Taupunkt:
Aussen-T/F 26 20-05-2014 00:00:00 19.46562 C 67.3681 % 13.26 C
27 21-05-2014 00:00:00 20.29792 C 68.1181 % 14.23 C
28 22-05-2014 00:00:00 20.21806 C 65.7465 % 13.61 C
29 23-05-2014 00:00:00 15.52639 C 89.6667 % 13.84 C
30 24-05-2014 00:00:00 14.72993 C 81.1514 % 11.53 C
31 25-05-2014 00:00:00 15.25071 C 74.9149 % 10.83 C
32 26-05-2014 00:00:00 16.8625 C 80.3056 % 13.45 C
33 27-05-2014 00:00:00 15.19431 C 94.7346 % 14.36 C
34 28-05-2014 00:00:00 14.58118 C 88.4000 % 12.69 C
35 29-05-2014 00:00:00 13.44653 C 87.1042 % 11.35 C
36 30-05-2014 00:00:00 13.2316 C 70.4167 % 7.97 C
37 31-05-2014 00:00:00 13.40382 C 74.2639 % 8.92 C
38 01-06-2014 00:00:00 15.49273 C 69.6545 % 9.98 C
39 02-06-2014 00:00:00 15.88943 C 67.9715 % 9.99 C
40 03-06-2014 00:00:00 15.78662 C 74.8627 % 11.34 C
41 04-06-2014 00:00:00 14.95388 C 86.4155 % 12.71 C
42 05-06-2014 00:00:00 14.55765 C 67.7687 % 8.68 C
43 06-06-2014 00:00:00 17.20312 C 67.7778 % 11.2 C
44 07-06-2014 00:00:00 20.77257 C 72.3750 % 15.62 C
45 08-06-2014 00:00:00 24.09514 C 70.7431 % 18.45 C
46 09-06-2014 00:00:00 25.74583 C 69.9583 % 19.85 C
47 10-06-2014 00:00:00 23.66632 C 70.6389 % 18.01 C
48 11-06-2014 00:00:00 20.10803 C 81.3175 % 16.81 C
49 12-06-2014 00:00:00 19.97431 C 66.4583 % 13.54 C
50 13-06-2014 00:00:00 18.37014 C 68.1597 % 12.4 C
Sensor: Nr:Datum:Temp:Feuchte:Taupunkt:
Aussen-T/F 51 14-06-2014 00:00:00 17.27465 C 65.5104 % 10.76 C
52 15-06-2014 00:00:00 16.86944 C 67.1875 % 10.75 C
53 16-06-2014 00:00:00 15.61944 C 74.7396 % 11.15 C
54 17-06-2014 00:00:00 17.41354 C 66.8819 % 11.2 C
55 18-06-2014 00:00:00 17.76319 C 71.4931 % 12.54 C
56 19-06-2014 00:00:00 15.70791 C 75.5252 % 11.4 C
57 20-06-2014 00:00:00 15.64143 C 71.1667 % 10.44 C
58 21-06-2014 00:00:00 16.62118 C 65.5903 % 10.15 C
59 22-06-2014 00:00:00 16.62782 C 66.3415 % 10.33 C
60 23-06-2014 00:00:00 17.14792 C 65.1910 % 10.56 C
61 24-06-2014 00:00:00 16.64978 C 71.6277 % 11.5 C
62 25-06-2014 00:00:00 17.29096 C 56.5426 % 8.58 C
63 26-06-2014 00:00:00 16.18958 C 64.0764 % 9.4 C
64 27-06-2014 00:00:00 17.54167 C 67.2604 % 11.41 C
65 28-06-2014 00:00:00 16.28043 C 87.3950 % 14.18 C
66 29-06-2014 00:00:00 14.67192 C 93.3251 % 13.61 C
67 30-06-2014 00:00:00 16.05247 C 75.2167 % 11.67 C
68 01-07-2014 00:00:00 15.65035 C 70.2917 % 10.26 C
69 02-07-2014 00:00:00 16.86146 C 65.5313 % 10.37 C
70 03-07-2014 00:00:00 19.78889 C 59.6493 % 11.72 C
71 04-07-2014 00:00:00 20.36076 C 67.5382 % 14.16 C
72 05-07-2014 00:00:00 20.4 C 77.3439 % 16.3 C
73 06-07-2014 00:00:00 23.48509 C 69.7818 % 17.65 C
74 07-07-2014 00:00:00 19.86367 C 64.8202 % 13.05 C
75 08-07-2014 00:00:00 15.57633 C 89.8898 % 13.92 C
Sensor: Nr:Datum:Temp:Feuchte:Taupunkt:
Aussen-T/F 76 09-07-2014 00:00:00 12.97083 C 95.1667 % 12.22 C
77 10-07-2014 00:00:00 17.68292 C 90.2000 % 16.06 C
78 11-07-2014 00:00:00 18.42369 C 88.6466 % 16.51 C
79 12-07-2014 00:00:00 18.68363 C 88.1018 % 16.67 C
80 13-07-2014 00:00:00 19.06941 C 85.5922 % 16.6 C
81 14-07-2014 00:00:00 19.60206 C 79.5021 % 15.96 C
82 15-07-2014 00:00:00 21.3216 C 70.6901 % 15.78 C
83 16-07-2014 00:00:00 21.88732 C 74.8829 % 17.23 C
84 17-07-2014 00:00:00 23.77903 C 70.2742 % 18.04 C
85 18-07-2014 00:00:00 24.87935 C 65.5097 % 17.97 C
86 19-07-2014 00:00:00 27.76989 C 58.4086 % 18.86 C
87 20-07-2014 00:00:00 22.68715 C 80.6840 % 19.19 C
88 21-07-2014 00:00:00 20.29965 C 91.0660 % 18.79 C
89 22-07-2014 00:00:00 23.6856 C 82.0494 % 20.44 C
90 23-07-2014 00:00:00 23.11788 C 73.8869 % 18.2 C
91 24-07-2014 00:00:00 20.63922 C 73.5020 % 15.74 C
92 25-07-2014 00:00:00 21.8193 C 72.9825 % 16.76 C
93 26-07-2014 00:00:00 21.92 C 74.3097 % 17.14 C
94 27-07-2014 00:00:00 19.66694 C 83.9339 % 16.88 C
95 28-07-2014 00:00:00 22.3284 C 78.8580 % 18.48 C
96 29-07-2014 00:00:00 19.88194 C 95.8125 % 19.19 C
97 30-07-2014 00:00:00 19.93194 C 85.4097 % 17.41 C
98 31-07-2014 00:00:00 20.20645 C 77.0896 % 16.06 C
99 01-08-2014 00:00:00 20.08438 C 81.7153 % 16.86 C
100 02-08-2014 00:00:00 20.10868 C 84.8264 % 17.48 C
Sensor: Nr:Datum:Temp:Feuchte:Taupunkt:
Aussen-T/F 101 03-08-2014 00:00:00 21.3566 C 81.2743 % 18.02 C
102 04-08-2014 00:00:00 19.00347 C 86.5799 % 16.71 C
103 05-08-2014 00:00:00 18.77049 C 82.0208 % 15.64 C
104 06-08-2014 00:00:00 17.59618 C 84.4201 % 14.94 C
105 07-08-2014 00:00:00 18.9934 C 85.7986 % 16.56 C
106 08-08-2014 00:00:00 18.87604 C 89.5625 % 17.12 C
107 09-08-2014 00:00:00 20.16771 C 80.6076 % 16.73 C
108 10-08-2014 00:00:00 19.0125 C 90.0208 % 17.34 C
109 11-08-2014 00:00:00 17.0066 C 81.0000 % 13.72 C
110 12-08-2014 00:00:00 17.62431 C 72.1944 % 12.56 C
111 13-08-2014 00:00:00 15.97674 C 89.6528 % 14.28 C
112 14-08-2014 00:00:00 16.15426 C 84.3298 % 13.51 C
113 15-08-2014 00:00:00 14.48638 C 92.1720 % 13.23 C
114 16-08-2014 00:00:00 15.13439 C 89.3930 % 13.4 C
115 17-08-2014 00:00:00 16.14062 C 77.5243 % 12.21 C
116 18-08-2014 00:00:00 16.30417 C 74.5313 % 11.77 C
117 19-08-2014 00:00:00 13.79653 C 83.4410 % 11.04 C
118 20-08-2014 00:00:00 12.68681 C 83.0799 % 9.89 C
119 21-08-2014 00:00:00 12.84653 C 82.9965 % 10.03 C
120 22-08-2014 00:00:00 14.04062 C 78.5000 % 10.36 C
121 23-08-2014 00:00:00 14.26875 C 83.3194 % 11.48 C
122 24-08-2014 00:00:00 11.58993 C 93.2465 % 10.54 C
123 25-08-2014 00:00:00 13.23854 C 93.7743 % 12.26 C
124 26-08-2014 00:00:00 14.79479 C 96.8681 % 14.3 C
125 27-08-2014 00:00:00 15.38741 C 91.3237 % 13.98 C
Sensor: Nr:Datum:Temp:Feuchte:Taupunkt:
Aussen-T/F 126 28-08-2014 00:00:00 15.84062 C 93.0556 % 14.72 C
127 29-08-2014 00:00:00 18.05278 C 88.6979 % 16.16 C
128 30-08-2014 00:00:00 16.23299 C 90.9965 % 14.76 C
129 31-08-2014 00:00:00 14.70069 C 92.8125 % 13.55 C
130 01-09-2014 00:00:00 14.60556 C 91.4896 % 13.24 C
131 02-09-2014 00:00:00 14.6191 C 90.6771 % 13.11 C
132 03-09-2014 00:00:00 15.03299 C 89.9549 % 13.4 C
133 04-09-2014 00:00:00 16.74028 C 89.6910 % 15.04 C
134 05-09-2014 00:00:00 18.15903 C 91.3819 % 16.73 C
135 06-09-2014 00:00:00 17.4559 C 92.7604 % 16.27 C
136 07-09-2014 00:00:00 18.08889 C 88.1264 % 16.09 C
137 08-09-2014 00:00:00 17.83403 C 84.0833 % 15.11 C
138 09-09-2014 00:00:00 15.64965 C 81.4410 % 12.48 C
139 10-09-2014 00:00:00 14.27882 C 83.4132 % 11.51 C
140 11-09-2014 00:00:00 14.96111 C 83.0903 % 12.12 C
141 12-09-2014 00:00:00 14.12153 C 84.7257 % 11.59 C
142 13-09-2014 00:00:00 16.12118 C 88.7743 % 14.27 C
143 14-09-2014 00:00:00 16.65196 C 88.0641 % 14.67 C
144 15-09-2014 00:00:00 16.079 C 91.5516 % 14.7 C
145 16-09-2014 00:00:00 16.93264 C 90.1458 % 15.31 C
146 17-09-2014 00:00:00 16.05139 C 92.2118 % 14.79 C
147 18-09-2014 00:00:00 17.4875 C 95.6215 % 16.78 C
148 19-09-2014 00:00:00 18.38993 C 95.2708 % 17.62 C
149 20-09-2014 00:00:00 17.14931 C 96.4583 % 16.58 C
150 21-09-2014 00:00:00 15.46146 C 95.3090 % 14.71 C
Sensor: Nr:Datum:Temp:Feuchte:Taupunkt:
Aussen-T/F 151 22-09-2014 00:00:00 12.53194 C 86.3194 % 10.31 C
152 23-09-2014 00:00:00 9.91146 C 90.8993 % 8.5 C
153 24-09-2014 00:00:00 11.10451 C 89.8056 % 9.5 C
154 25-09-2014 00:00:00 13.67917 C 85.6806 % 11.33 C
155 26-09-2014 00:00:00 14.24896 C 88.9653 % 12.46 C
156 27-09-2014 00:00:00 15.59965 C 91.2743 % 14.18 C
157 28-09-2014 00:00:00 14.22743 C 95.0660 % 13.45 C
158 29-09-2014 00:00:00 15.41493 C 94.8472 % 14.59 C
159 30-09-2014 00:00:00 16.83438 C 93.1875 % 15.73 C
160 01-10-2014 00:00:00 15.87778 C 94.6389 % 15.02 C
161 02-10-2014 00:00:00 14.35799 C 95.7326 % 13.69 C
162 03-10-2014 00:00:00 13.73785 C 95.4063 % 13.02 C
163 04-10-2014 00:00:00 12.86979 C 93.2014 % 11.8 C
164 05-10-2014 00:00:00 12.94097 C 94.0799 % 12.01 C
165 06-10-2014 00:00:00 14.3 C 90.3750 % 12.75 C
166 07-10-2014 00:00:00 13.71806 C 92.2986 % 12.49 C
167 08-10-2014 00:00:00 13.3 C 97.6069 % 12.93 C
168 09-10-2014 00:00:00 15.17173 C 97.6859 % 14.81 C
169 10-10-2014 00:00:00 14.20902 C 96.4000 % 13.64 C
170 11-10-2014 00:00:00 14.77847 C 96.0347 % 14.15 C
171 12-10-2014 00:00:00 12.52744 C 95.6029 % 11.84 C
172 13-10-2014 00:00:00 14.72014 C 96.7569 % 14.21 C
173 14-10-2014 00:00:00 12.54495 C 95.1847 % 11.8 C
174 15-10-2014 00:00:00 11.65639 C 95.3910 % 10.94 C
175 16-10-2014 00:00:00 14.02682 C 94.9818 % 13.24 C
Sensor: Nr:Datum:Temp:Feuchte:Taupunkt:
Aussen-T/F 176 17-10-2014 00:00:00 14.05977 C 93.7854 % 13.07 C
177 18-10-2014 00:00:00 12.49887 C 97.7283 % 12.15 C
178 19-10-2014 00:00:00 15.09722 C 92.7188 % 13.93 C
179 20-10-2014 00:00:00 15.06015 C 83.9885 % 12.38 C
180 21-10-2014 00:00:00 11.78491 C 85.1649 % 9.38 C
181 22-10-2014 00:00:00 8.88438 C 85.2674 % 6.55 C
182 23-10-2014 00:00:00 10.3816 C 87.9444 % 8.47 C
183 24-10-2014 00:00:00 10.59097 C 90.2951 % 9.07 C
184 25-10-2014 00:00:00 11.53056 C 94.5417 % 10.69 C
185 26-10-2014 00:00:00 11.35625 C 95.5278 % 10.67 C
186 27-10-2014 00:00:00 9.22813 C 96.0903 % 8.64 C
187 28-10-2014 00:00:00 7.93681 C 88.3750 % 6.14 C
188 29-10-2014 00:00:00 9.50556 C 91.5347 % 8.2 C
189 30-10-2014 00:00:00 12.10625 C 96.8819 % 11.63 C
190 31-10-2014 00:00:00 12.05903 C 97.0694 % 11.61 C
191 01-11-2014 00:00:00 10.92674 C 98.2674 % 10.66 C
192 02-11-2014 00:00:00 11.24448 C 97.2776 % 10.83 C
193 03-11-2014 00:00:00 13.84028 C 90.1806 % 12.26 C
194 04-11-2014 00:00:00 11.22049 C 96.5521 % 10.69 C
195 05-11-2014 00:00:00 9.33229 C 95.2257 % 8.61 C
196 06-11-2014 00:00:00 6.59514 C 92.6250 % 5.49 C
197 07-11-2014 00:00:00 5.60208 C 94.8160 % 4.84 C
198 08-11-2014 00:00:00 8.8941 C 91.4340 % 7.58 C
199 09-11-2014 00:00:00 6.62257 C 96.8125 % 6.15 C
200 10-11-2014 00:00:00 8.76389 C 96.3715 % 8.22 C
Sensor: Nr:Datum:Temp:Feuchte:Taupunkt:
Aussen-T/F 201 11-11-2014 00:00:00 8.47553 C 95.0106 % 7.72 C
202 12-11-2014 00:00:00 9.50104 C 95.2604 % 8.78 C
203 13-11-2014 00:00:00 9.66736 C 96.6806 % 9.17 C
204 14-11-2014 00:00:00 10.60174 C 90.0313 % 9.04 C
205 15-11-2014 00:00:00 9.75938 C 94.5347 % 8.93 C
206 16-11-2014 00:00:00 8.75674 C 97.4468 % 8.38 C
207 17-11-2014 00:00:00 8.71146 C 97.5799 % 8.35 C
208 18-11-2014 00:00:00 8.62491 C 96.7473 % 8.14 C
209 19-11-2014 00:00:00 8.07465 C 95.9514 % 7.47 C
210 20-11-2014 00:00:00 6.45486 C 94.4826 % 5.63 C
211 21-11-2014 00:00:00 5.36458 C 95.0799 % 4.64 C
212 22-11-2014 00:00:00 5.83576 C 95.7569 % 5.21 C
213 23-11-2014 00:00:00 6.30104 C 96.9931 % 5.86 C
214 24-11-2014 00:00:00 7.36679 C 94.6236 % 6.56 C
215 25-11-2014 00:00:00 3.04781 C 97.7769 % 2.73 C
216 26-11-2014 00:00:00 5.29848 C 89.8182 % 3.77 C
217 27-11-2014 00:00:00 5.85447 C 92.9300 % 4.8 C
218 28-11-2014 00:00:00 5.42203 C 91.8771 % 4.21 C
219 29-11-2014 00:00:00 4.46596 C 89.4070 % 2.88 C
220 30-11-2014 00:00:00 3.88993 C 91.8229 % 2.69 C
221 01-12-2014 00:00:00 3.33299 C 91.1840 % 2.04 C
222 02-12-2014 00:00:00 1.63731 C 91.3192 % 0.38 C
223 03-12-2014 00:00:00 1.74095 C 94.0216 % 0.88 C
224 04-12-2014 00:00:00 2.32917 C 92.6806 % 1.27 C
225 05-12-2014 00:00:00 4.15278 C 92.7500 % 3.09 C
Sensor: Nr:Datum:Temp:Feuchte:Taupunkt:
Aussen-T/F 226 06-12-2014 00:00:00 4.51389 C 95.0174 % 3.79 C
227 07-12-2014 00:00:00 4.32049 C 92.1597 % 3.16 C
228 08-12-2014 00:00:00 3.10625 C 93.1458 % 2.11 C
229 09-12-2014 00:00:00 2.57569 C 96.3472 % 2.05 C
230 10-12-2014 00:00:00 4.42118 C 89.8993 % 2.91 C
231 11-12-2014 00:00:00 6.26736 C 89.8125 % 4.72 C
232 12-12-2014 00:00:00 9.07951 C 85.8507 % 6.84 C
233 13-12-2014 00:00:00 4.45625 C 96.4618 % 3.94 C
234 14-12-2014 00:00:00 2.59063 C 96.5868 % 2.1 C
235 15-12-2014 00:00:00 3.42986 C 93.8646 % 2.54 C
236 16-12-2014 00:00:00 6.12049 C 91.8542 % 4.9 C
237 17-12-2014 00:00:00 6.08021 C 92.4167 % 4.95 C
238 18-12-2014 00:00:00 11.91597 C 90.3021 % 10.38 C
239 19-12-2014 00:00:00 10.45243 C 86.8194 % 8.35 C
240 20-12-2014 00:00:00 5.90764 C 85.4618 % 3.66 C
241 21-12-2014 00:00:00 6.41042 C 88.0833 % 4.59 C
242 22-12-2014 00:00:00 8.375 C 87.5139 % 6.43 C
243 23-12-2014 00:00:00 10.04444 C 85.6222 % 7.75 C
244 24-12-2014 00:00:00 8.3214 C 86.1158 % 6.14 C
245 25-12-2014 00:00:00 5.2875 C 85.6027 % 3.08 C
246 26-12-2014 00:00:00 2.31469 C 97.1259 % 1.91 C
247 27-12-2014 00:00:00 1.46649 C 94.8796 % 0.74 C
248 28-12-2014 00:00:00 -3.09591 C 79.8636 % -6.07 C
249 29-12-2014 00:00:00 -0.46157 C 89.7388 % -1.94 C
250 30-12-2014 00:00:00 2.6765 C 92.5574 % 1.59 C
Sensor: Nr:Datum:Temp:Feuchte:Taupunkt:
Aussen-T/F 251 31-12-2014 00:00:00 2.46053 C 93.8487 % 1.57 C
252 01-01-2015 00:00:00 1.89397 C 96.4741 % 1.39 C
253 02-01-2015 00:00:00 3.6411 C 89.1575 % 2.03 C
254 03-01-2015 00:00:00 1.94125 C 94.7000 % 1.18 C
255 04-01-2015 00:00:00 2.94172 C 93.6503 % 2.02 C
256 05-01-2015 00:00:00 -0.02447 C 95.0904 % -0.71 C
257 06-01-2015 00:00:00 0.48846 C 92.6923 % -0.55 C
258 07-01-2015 00:00:00 2.52604 C 92.4113 % 1.42 C
259 08-01-2015 00:00:00 6.62222 C 92.6632 % 5.52 C
260 09-01-2015 00:00:00 9.27879 C 85.8977 % 7.04 C
261 10-01-2015 00:00:00 13.56872 C 83.0051 % 10.74 C
262 11-01-2015 00:00:00 5.45068 C 76.2432 % 1.61 C
263 12-01-2015 00:00:00 6.91962 C 83.3811 % 4.3 C
264 13-01-2015 00:00:00 10.09231 C 75.4163 % 5.95 C
265 14-01-2015 00:00:00 5.9911 C 84.6525 % 3.61 C
266 15-01-2015 00:00:00 10.14352 C 76.1574 % 6.14 C
267 16-01-2015 00:00:00 6.66424 C 88.4201 % 4.89 C
268 17-01-2015 00:00:00 3.35174 C 91.5660 % 2.11 C
269 18-01-2015 00:00:00 1.91111 C 84.4965 % -0.42 C
270 19-01-2015 00:00:00 0.89028 C 89.3889 % -0.65 C
271 20-01-2015 00:00:00 0.86285 C 90.8576 % -0.46 C
272 21-01-2015 00:00:00 -0.0414 C 88.7123 % -1.68 C
273 22-01-2015 00:00:00 1.45625 C 84.8438 % -0.81 C
274 23-01-2015 00:00:00 1.33299 C 89.6736 % -0.17 C
275 24-01-2015 00:00:00 1.04056 C 91.7189 % -0.15 C
Sensor: Nr:Datum:Temp:Feuchte:Taupunkt:
Aussen-T/F 276 25-01-2015 00:00:00 2.19444 C 94.2396 % 1.37 C
277 26-01-2015 00:00:00 3.05694 C 95.0069 % 2.34 C
278 27-01-2015 00:00:00 3.85208 C 93.6806 % 2.93 C
279 28-01-2015 00:00:00 4.1184 C 90.7604 % 2.75 C
280 29-01-2015 00:00:00 3.03715 C 88.2431 % 1.29 C
281 30-01-2015 00:00:00 1.92569 C 90.3715 % 0.52 C
282 31-01-2015 00:00:00 2.07143 C 87.5437 % 0.23 C
283 01-02-2015 00:00:00 2.04274 C 93.0565 % 1.04 C
284 02-02-2015 00:00:00 2.35794 C 89.0635 % 0.75 C
285 03-02-2015 00:00:00 0.88769 C 90.6462 % -0.46 C
286 04-02-2015 00:00:00 0.04848 C 87.0379 % -1.84 C
287 05-02-2015 00:00:00 -1.86778 C 83.7333 % -4.25 C
288 06-02-2015 00:00:00 0.42153 C 69.7431 % -4.45 C
289 07-02-2015 00:00:00 -0.6316 C 80.7569 % -3.52 C
290 08-02-2015 00:00:00 3.19444 C 81.6701 % 0.37 C
291 09-02-2015 00:00:00 4.06597 C 90.9549 % 2.73 C
292 10-02-2015 00:00:00 4.96528 C 91.7188 % 3.73 C
293 11-02-2015 00:00:00 3.82917 C 87.1771 % 1.9 C
294 12-02-2015 00:00:00 2.75556 C 89.3854 % 1.19 C
295 13-02-2015 00:00:00 2.27396 C 89.2326 % 0.69 C
296 14-02-2015 00:00:00 3.73438 C 86.5382 % 1.7 C
297 15-02-2015 00:00:00 1.72778 C 89.3542 % 0.17 C
298 16-02-2015 00:00:00 1.82744 C 88.4874 % 0.13 C
299 17-02-2015 00:00:00 3.31146 C 88.3646 % 1.58 C
300 18-02-2015 00:00:00 4.09479 C 89.1493 % 2.47 C
Sensor: Nr:Datum:Temp:Feuchte:Taupunkt:
Aussen-T/F 301 19-02-2015 00:00:00 0.94861 C 88.1007 % -0.79 C
302 20-02-2015 00:00:00 6.96389 C 77.7326 % 3.35 C
303 21-02-2015 00:00:00 5.27535 C 85.5972 % 3.06 C
304 22-02-2015 00:00:00 3.72083 C 82.6285 % 1.05 C
305 23-02-2015 00:00:00 3.46944 C 89.0000 % 1.83 C
306 24-02-2015 00:00:00 4.88611 C 84.9757 % 2.58 C
307 25-02-2015 00:00:00 4.28403 C 89.1215 % 2.65 C
308 26-02-2015 00:00:00 6.06354 C 89.7708 % 4.51 C
309 27-02-2015 00:00:00 5.01736 C 91.6632 % 3.78 C
310 28-02-2015 00:00:00 2.37187 C 85.8854 % 0.26 C
311 01-03-2015 00:00:00 7.71493 C 80.8125 % 4.63 C
312 02-03-2015 00:00:00 6.14653 C 79.5556 % 2.88 C
313 03-03-2015 00:00:00 5.52812 C 78.2778 % 2.05 C
314 04-03-2015 00:00:00 4.51771 C 82.8576 % 1.86 C
315 05-03-2015 00:00:00 5.08681 C 83.0556 % 2.45 C
316 06-03-2015 00:00:00 4.14931 C 84.0660 % 1.71 C
317 07-03-2015 00:00:00 4.96007 C 81.3993 % 2.05 C
318 08-03-2015 00:00:00 6.05625 C 83.0174 % 3.4 C
319 09-03-2015 00:00:00 7.81354 C 84.5938 % 5.38 C
320 10-03-2015 00:00:00 5.56319 C 96.8542 % 5.1 C
321 11-03-2015 00:00:00 4.39549 C 87.3090 % 2.48 C
322 12-03-2015 00:00:00 3.92222 C 82.5382 % 1.23 C
323 13-03-2015 00:00:00 4.14514 C 76.4688 % 0.39 C
324 14-03-2015 00:00:00 4.55451 C 82.5729 % 1.85 C
325 15-03-2015 00:00:00 4.61042 C 89.4132 % 3.02 C
Sensor: Nr:Datum:Temp:Feuchte:Taupunkt:
Aussen-T/F 326 16-03-2015 00:00:00 4.68368 C 86.6736 % 2.66 C
327 17-03-2015 00:00:00 7.26632 C 81.9722 % 4.4 C
328 18-03-2015 00:00:00 9.08924 C 80.6424 % 5.94 C
329 19-03-2015 00:00:00 7.62431 C 91.9132 % 6.4 C
330 20-03-2015 00:00:00 8.07465 C 82.3889 % 5.26 C
331 21-03-2015 00:00:00 5.69201 C 90.0000 % 4.18 C
332 22-03-2015 00:00:00 5.19792 C 82.4965 % 2.47 C
333 23-03-2015 00:00:00 3.85521 C 84.2118 % 1.44 C
334 24-03-2015 00:00:00 6.94167 C 81.1181 % 3.93 C
335 25-03-2015 00:00:00 7.68056 C 84.0729 % 5.17 C
336 26-03-2015 00:00:00 7.17257 C 77.3333 % 3.48 C
337 27-03-2015 00:00:00 7.64965 C 74.8472 % 3.48 C
338 28-03-2015 00:00:00 8.51667 C 79.0243 % 5.09 C
339 29-03-2015 00:00:00 11.63659 C 83.7029 % 8.98 C
340 30-03-2015 00:00:00 8.21597 C 71.2222 % 3.32 C
341 31-03-2015 00:00:00 10.06181 C 74.1771 % 5.68 C
342 01-04-2015 00:00:00 6.38924 C 70.3542 % 1.4 C
343 02-04-2015 00:00:00 6.45868 C 73.6250 % 2.1 C
344 03-04-2015 00:00:00 5.87951 C 71.3819 % 1.11 C
345 04-04-2015 00:00:00 6.24896 C 76.7882 % 2.49 C
346 05-04-2015 00:00:00 5.21354 C 69.6042 % 0.12 C
347 06-04-2015 00:00:00 5.33542 C 76.9201 % 1.62 C
348 07-04-2015 00:00:00 5.98646 C 76.3785 % 2.16 C
349 08-04-2015 00:00:00 8.43776 C 77.5594 % 4.75 C
350 09-04-2015 00:00:00 11.19653 C 77.2118 % 7.36 C
Sensor: Nr:Datum:Temp:Feuchte:Taupunkt:
Aussen-T/F 351 10-04-2015 00:00:00 13.22708 C 68.0278 % 7.46 C
352 11-04-2015 00:00:00 12.37118 C 70.6736 % 7.2 C
353 12-04-2015 00:00:00 11.34444 C 70.3090 % 6.14 C
354 13-04-2015 00:00:00 11.50104 C 69.8576 % 6.2 C
355 14-04-2015 00:00:00 13.37778 C 67.0347 % 7.39 C
356 15-04-2015 00:00:00 16.43472 C 63.5799 % 9.51 C
357 16-04-2015 00:00:00 15.04757 C 69.6493 % 9.55 C
358 17-04-2015 00:00:00 11.41736 C 67.7951 % 5.69 C
359 18-04-2015 00:00:00 8.60486 C 64.9931 % 2.41 C
360 19-04-2015 00:00:00 9.50903 C 62.7708 % 2.78 C
361 20-04-2015 00:00:00 12.20312 C 60.9549 % 4.9 C
362 21-04-2015 00:00:00 13.69549 C 60.5278 % 6.21 C
363 22-04-2015 00:00:00 10.77465 C 69.4826 % 5.42 C
364 23-04-2015 00:00:00 10.84062 C 70.1806 % 5.63 C
365 24-04-2015 00:00:00 13.43403 C 62.6701 % 6.46 C

Maximal/Minimal-Werte vom 25.04.2014 - 24.04.2015

Sensor Min Max Avg
Temp
(Aussen-T/F)
-5.3 °C
28-12-2014  22:40:00
35.4 °C
09-06-2014  18:00:00
11.17 °C
Feuchte
(Aussen-T/F)
21 %
03-07-2014  18:35:00
100 %
27-05-2014  14:10:00
84.19 %
Taupunkt
(Aussen-T/F)
-6.07 C
28-12-2014  00:00:00
20.44 C
22-07-2014  00:00:00
8.44 C

Die Daten stammen von einer Davis Vantage Pro 2 Wetter-Station und werden unter Linux mit der Software wview2wettercgi und aufbereitet. Alle Angaben erfolgen ohne Gewähr für ihre Vollständigkeit oder Richtigkeit.
Kontakt: Rainer Krienke krienke@uni-koblenz.de . Meine Webseiten an der Uni Koblenz oder privat.
Version: $Revision: 0.78 $